Terminal Aerodrome Forecast
Issued by NWS Duluth, MN

Home | Current Version | Previous Version | Text Only | Print | Product List | Glossary On
Versions: 1 2 3 4 5 6 7 8 9 10 11 12 13 14 15 16 17 18 19 20
000
FTUS43 KDLH 280523
TAFINL
TAF
KINL 280523Z 2806/2906 VRB03KT P6SM SCT100
     FM281100 14005KT P6SM VCSH SCT050 BKN080
     FM281500 12008KT 5SM -SHRA BR BKN025
     FM281900 13007KT 3SM -SHRA OVC015
     FM282100 15004KT 3SM -SHRA OVC008
     FM290200 03004KT P6SM VCSH OVC008=

USA.gov is the U.S. government's official web portal to all federal, state and local government web resources and services.